createdAt,value
2023-04-09T00:00:05.476Z,22.65
2023-04-09T00:03:14.664Z,21.23
2023-04-09T00:06:17.226Z,21.13
2023-04-09T00:09:20.941Z,23.20
2023-04-09T00:15:31.166Z,21.40
2023-04-09T00:18:34.450Z,22.15
2023-04-09T00:21:37.162Z,21.80
2023-04-09T00:24:39.625Z,23.60
2023-04-09T00:27:42.041Z,22.70
2023-04-09T00:30:44.644Z,25.65
2023-04-09T00:33:47.049Z,23.20
2023-04-09T00:36:49.570Z,22.25
2023-04-09T00:39:52.176Z,24.73
2023-04-09T00:42:54.600Z,20.88
2023-04-09T00:45:57.269Z,20.85
2023-04-09T00:48:59.933Z,21.33
2023-04-09T00:52:02.808Z,21.52
2023-04-09T00:55:06.504Z,20.40
2023-04-09T00:58:08.980Z,20.65
2023-04-09T01:01:11.674Z,24.85
2023-04-09T01:04:14.379Z,23.10
2023-04-09T01:07:55.038Z,21.13
2023-04-09T01:11:16.363Z,22.35
2023-04-09T01:14:26.815Z,23.02
2023-04-09T01:17:36.108Z,23.58
2023-04-09T01:20:38.927Z,23.48
2023-04-09T01:23:50.764Z,23.35
2023-04-09T01:27:04.506Z,21.67
2023-04-09T01:30:13.854Z,24.15
2023-04-09T01:33:17.845Z,23.48
2023-04-09T01:36:20.780Z,23.52
2023-04-09T01:39:23.537Z,22.45
2023-04-09T01:42:26.170Z,22.20
2023-04-09T01:45:28.663Z,23.25
2023-04-09T01:48:31.536Z,23.73
2023-04-09T01:51:34.046Z,22.35
2023-04-09T01:54:36.723Z,21.73
2023-04-09T01:57:39.259Z,20.25
2023-04-09T02:00:51.283Z,21.73
2023-04-09T02:03:56.870Z,19.77
2023-04-09T02:07:15.517Z,21.23
2023-04-09T02:10:18.087Z,19.55
2023-04-09T02:13:21.831Z,18.88
2023-04-09T02:16:24.370Z,19.33
2023-04-09T02:19:47.113Z,20.05
2023-04-09T02:25:52.271Z,20.52
2023-04-09T02:28:55.089Z,21.20
2023-04-09T02:31:57.566Z,22.00
2023-04-09T02:35:00.000Z,20.27
2023-04-09T02:38:02.477Z,21.13
2023-04-09T02:41:05.035Z,22.83
2023-04-09T02:44:07.486Z,20.23
2023-04-09T02:47:10.268Z,22.95
2023-04-09T02:50:13.562Z,20.35
2023-04-09T02:53:22.278Z,20.02
2023-04-09T02:56:24.739Z,22.23
2023-04-09T02:59:27.150Z,20.98
2023-04-09T03:02:29.812Z,22.25
2023-04-09T03:05:32.403Z,18.58
2023-04-09T03:08:35.088Z,20.70
2023-04-09T03:11:37.689Z,18.58
2023-04-09T03:14:40.146Z,20.73
2023-04-09T03:17:43.010Z,18.38
2023-04-09T03:20:45.507Z,18.92
2023-04-09T03:23:49.510Z,21.00
2023-04-09T03:26:52.387Z,20.00
2023-04-09T03:29:58.202Z,20.50
2023-04-09T03:33:09.233Z,21.85
2023-04-09T03:36:24.797Z,20.33
2023-04-09T03:39:37.542Z,22.52
2023-04-09T03:42:48.617Z,20.50
2023-04-09T03:45:52.532Z,21.27
2023-04-09T03:49:01.233Z,21.98
2023-04-09T03:52:12.352Z,20.98
2023-04-09T03:55:18.767Z,20.65
2023-04-09T03:58:21.719Z,18.27
2023-04-09T04:01:24.317Z,19.60
2023-04-09T04:04:34.112Z,19.35
2023-04-09T04:07:39.667Z,18.75
2023-04-09T04:10:46.890Z,20.15
2023-04-09T04:13:52.028Z,20.42
2023-04-09T04:16:54.785Z,19.90
2023-04-09T04:20:02.349Z,17.02
2023-04-09T04:23:07.029Z,18.80
2023-04-09T04:26:12.286Z,18.90
2023-04-09T04:29:16.866Z,20.95
2023-04-09T04:32:28.225Z,20.15
2023-04-09T04:35:31.904Z,19.27
2023-04-09T04:38:38.337Z,18.13
2023-04-09T04:41:47.056Z,21.67
2023-04-09T04:44:54.975Z,19.40
2023-04-09T04:48:30.979Z,18.42
2023-04-09T04:51:34.099Z,18.13
2023-04-09T04:54:45.453Z,19.98
2023-04-09T04:57:53.304Z,21.58
2023-04-09T05:01:00.760Z,18.33
2023-04-09T05:04:04.621Z,19.15
2023-04-09T05:07:12.358Z,18.27
2023-04-09T05:10:23.216Z,17.23
2023-04-09T05:13:26.040Z,19.10
2023-04-09T05:16:29.223Z,19.27
2023-04-09T05:19:38.342Z,19.45
2023-04-09T05:22:40.867Z,19.88
2023-04-09T05:25:43.781Z,19.23
2023-04-09T05:28:55.375Z,20.13
2023-04-09T05:31:59.428Z,19.30
2023-04-09T05:35:11.969Z,18.52
2023-04-09T05:38:18.525Z,18.35
2023-04-09T05:41:25.868Z,18.63
2023-04-09T05:44:46.701Z,19.55
2023-04-09T05:47:53.175Z,19.88
2023-04-09T05:51:00.357Z,19.13
2023-04-09T05:54:04.265Z,22.60
2023-04-09T05:57:10.769Z,19.17
2023-04-09T06:00:16.737Z,19.20
2023-04-09T06:03:19.713Z,16.98
2023-04-09T06:06:22.895Z,16.90
2023-04-09T06:09:25.517Z,17.25
2023-04-09T06:12:27.869Z,18.35
2023-04-09T06:15:30.522Z,19.25
2023-04-09T06:18:33.162Z,20.42
2023-04-09T06:21:35.607Z,18.00
2023-04-09T06:24:38.043Z,18.10
2023-04-09T06:27:40.435Z,19.30
2023-04-09T06:30:42.808Z,18.35
2023-04-09T06:33:45.430Z,17.27
2023-04-09T06:36:47.865Z,18.02
2023-04-09T06:40:00.526Z,20.13
2023-04-09T06:43:04.303Z,18.20
2023-04-09T06:46:20.097Z,17.05
2023-04-09T06:49:22.818Z,18.60
2023-04-09T06:52:25.850Z,19.13
2023-04-09T06:55:28.486Z,19.90
2023-04-09T06:58:31.357Z,18.67
2023-04-09T07:01:35.791Z,14.15
2023-04-09T07:04:38.402Z,19.33
2023-04-09T07:07:41.242Z,16.95
2023-04-09T07:10:43.669Z,16.60
2023-04-09T07:13:46.320Z,16.60
2023-04-09T07:16:48.903Z,19.40
2023-04-09T07:19:54.136Z,17.35
2023-04-09T07:22:56.597Z,16.55
2023-04-09T07:26:01.489Z,17.30
2023-04-09T07:29:04.532Z,19.05
2023-04-09T07:32:08.945Z,14.88
2023-04-09T07:35:11.862Z,14.02
2023-04-09T07:38:14.506Z,13.68
2023-04-09T07:41:17.076Z,14.27
2023-04-09T07:44:20.065Z,11.90
2023-04-09T07:47:23.499Z,13.35
2023-04-09T07:50:27.033Z,12.48
2023-04-09T07:53:30.000Z,14.43
2023-04-09T07:56:32.479Z,16.00
2023-04-09T07:59:36.564Z,14.55
2023-04-09T08:02:40.106Z,11.63
2023-04-09T08:05:43.688Z,12.27
2023-04-09T08:08:47.229Z,11.93
2023-04-09T08:14:52.862Z,11.85
2023-04-09T08:17:55.843Z,11.95
2023-04-09T08:20:58.405Z,10.65
2023-04-09T08:24:06.008Z,16.30
2023-04-09T08:27:09.202Z,13.13
2023-04-09T08:30:12.555Z,13.63
2023-04-09T08:33:16.962Z,12.65
2023-04-09T08:36:20.394Z,14.07
2023-04-09T08:39:23.152Z,12.98
2023-04-09T08:42:26.501Z,12.40
2023-04-09T08:48:32.480Z,12.68
2023-04-09T08:51:35.311Z,13.93
2023-04-09T08:54:38.464Z,14.38
2023-04-09T09:04:10.907Z,13.40
2023-04-09T09:07:14.007Z,11.85
2023-04-09T09:10:16.403Z,12.88
2023-04-09T09:13:25.662Z,13.30
2023-04-09T09:16:28.162Z,12.20
2023-04-09T09:19:34.071Z,12.82
2023-04-09T09:22:54.930Z,13.32
2023-04-09T09:25:57.975Z,12.07
2023-04-09T09:29:00.581Z,12.52
2023-04-09T09:32:03.027Z,13.45
2023-04-09T09:35:06.614Z,11.40
2023-04-09T09:38:09.051Z,11.88
2023-04-09T09:41:18.525Z,11.63
2023-04-09T09:44:32.005Z,12.43
2023-04-09T09:47:35.024Z,11.50
2023-04-09T09:50:38.279Z,13.30
2023-04-09T09:53:43.670Z,13.57
2023-04-09T09:56:46.486Z,13.43
2023-04-09T09:59:54.951Z,13.02
2023-04-09T10:02:59.350Z,12.88
2023-04-09T10:06:02.475Z,12.35
2023-04-09T10:09:05.248Z,13.15
2023-04-09T10:12:07.884Z,12.43
2023-04-09T10:15:10.658Z,11.50
2023-04-09T10:18:13.154Z,14.63
2023-04-09T10:21:34.385Z,13.75
2023-04-09T10:24:36.858Z,13.25
2023-04-09T10:27:39.530Z,13.25
2023-04-09T10:30:42.857Z,11.63
2023-04-09T10:33:46.166Z,11.93
2023-04-09T10:36:53.544Z,11.65
2023-04-09T10:39:56.605Z,13.43
2023-04-09T10:42:59.224Z,13.18
2023-04-09T10:46:02.160Z,13.50
2023-04-09T10:49:21.011Z,13.20
2023-04-09T10:52:23.409Z,12.18
2023-04-09T10:55:36.466Z,13.10
2023-04-09T10:58:38.950Z,12.65
2023-04-09T11:01:41.523Z,13.52
2023-04-09T11:05:03.143Z,16.15
2023-04-09T11:08:09.728Z,13.27
2023-04-09T11:11:13.402Z,13.88
2023-04-09T11:14:20.599Z,12.70
2023-04-09T11:17:23.131Z,13.35
2023-04-09T11:20:26.224Z,12.95
2023-04-09T11:23:28.696Z,13.77
2023-04-09T11:26:37.542Z,13.48
2023-04-09T11:29:39.934Z,15.15
2023-04-09T11:32:42.453Z,13.38
2023-04-09T11:35:44.991Z,13.68
2023-04-09T11:38:49.447Z,12.73
2023-04-09T11:41:52.185Z,14.63
2023-04-09T11:44:54.617Z,12.45
2023-04-09T11:47:57.084Z,13.25
2023-04-09T11:50:59.666Z,13.25
2023-04-09T11:54:05.771Z,12.85
2023-04-09T11:57:08.317Z,15.43
2023-04-09T12:00:14.820Z,13.23
2023-04-09T12:03:17.463Z,14.38
2023-04-09T12:06:24.851Z,13.45
2023-04-09T12:09:27.343Z,13.45
2023-04-09T12:12:29.711Z,11.65
2023-04-09T12:15:37.214Z,12.57
2023-04-09T12:18:40.105Z,13.10
2023-04-09T12:21:56.386Z,12.63
2023-04-09T12:24:59.130Z,13.15
2023-04-09T12:28:02.250Z,12.55
2023-04-09T12:34:06.950Z,13.65
2023-04-09T12:37:09.750Z,14.13
2023-04-09T12:40:15.232Z,13.32
2023-04-09T12:43:17.964Z,13.90
2023-04-09T12:46:20.518Z,13.15
2023-04-09T12:49:23.256Z,13.63
2023-04-09T12:52:25.820Z,15.23
2023-04-09T12:55:28.718Z,23.27
2023-04-09T13:01:33.758Z,14.55
2023-04-09T13:04:36.465Z,12.90
2023-04-09T13:07:41.494Z,13.02
2023-04-09T13:10:45.357Z,14.45
2023-04-09T13:13:47.928Z,12.35
2023-04-09T13:16:52.524Z,13.18
2023-04-09T13:19:55.191Z,12.73
2023-04-09T13:26:01.284Z,13.70
2023-04-09T13:29:04.363Z,14.60
2023-04-09T13:32:11.408Z,12.88
2023-04-09T13:35:13.934Z,12.93
2023-04-09T13:38:16.348Z,12.77
2023-04-09T13:41:18.851Z,13.30
2023-04-09T13:44:21.260Z,13.43
2023-04-09T13:47:24.064Z,12.63
2023-04-09T13:53:28.931Z,12.23
2023-04-09T13:56:31.507Z,12.57
2023-04-09T13:59:34.137Z,13.32
2023-04-09T14:02:36.848Z,12.73
2023-04-09T14:05:39.294Z,12.20
2023-04-09T14:08:41.863Z,12.15
2023-04-09T14:11:44.346Z,12.77
2023-04-09T14:14:46.745Z,12.00
2023-04-09T14:17:49.488Z,11.68
2023-04-09T14:20:51.909Z,13.13
2023-04-09T14:23:54.490Z,12.32
2023-04-09T14:26:57.190Z,12.68
2023-04-09T14:29:59.671Z,12.55
2023-04-09T14:33:02.213Z,12.82
2023-04-09T14:36:04.930Z,11.80
2023-04-09T14:39:07.466Z,11.52
2023-04-09T14:42:09.906Z,12.32
2023-04-09T14:45:12.655Z,12.75
2023-04-09T14:48:15.142Z,12.35
2023-04-09T14:51:17.746Z,13.23
2023-04-09T14:54:20.139Z,12.73
2023-04-09T14:57:22.489Z,11.45
2023-04-09T15:00:25.140Z,12.00
2023-04-09T15:03:28.158Z,12.52
2023-04-09T15:06:32.340Z,13.38
2023-04-09T15:09:34.779Z,22.73
2023-04-09T15:12:37.289Z,12.32
2023-04-09T15:15:44.314Z,12.70
2023-04-09T15:18:49.496Z,11.65
2023-04-09T15:21:51.914Z,10.15
2023-04-09T15:24:54.529Z,9.55
2023-04-09T15:27:57.088Z,10.38
2023-04-09T15:30:59.484Z,11.90
2023-04-09T15:34:01.988Z,11.60
2023-04-09T15:37:04.506Z,12.23
2023-04-09T15:40:07.911Z,12.15
2023-04-09T15:43:10.358Z,14.82
2023-04-09T15:46:12.895Z,13.75
2023-04-09T15:49:18.159Z,12.25
2023-04-09T15:52:20.692Z,13.13
2023-04-09T15:55:26.852Z,23.52
2023-04-09T15:58:29.287Z,20.05
2023-04-09T16:01:32.901Z,16.15
2023-04-09T16:04:35.652Z,19.15
2023-04-09T16:07:39.620Z,17.70
2023-04-09T16:10:42.015Z,13.25
2023-04-09T16:13:44.946Z,16.55
2023-04-09T16:16:50.096Z,18.45
2023-04-09T16:19:52.635Z,12.63
2023-04-09T16:22:55.003Z,14.13
2023-04-09T16:25:57.826Z,13.32
2023-04-09T16:29:04.134Z,14.90
2023-04-09T16:32:06.702Z,13.82
2023-04-09T16:35:09.363Z,14.70
2023-04-09T16:38:11.883Z,13.57
2023-04-09T16:41:14.443Z,15.90
2023-04-09T16:44:16.960Z,13.98
2023-04-09T16:47:19.388Z,14.80
2023-04-09T16:50:22.537Z,15.27
2023-04-09T16:53:24.972Z,14.35
2023-04-09T16:56:27.630Z,13.93
2023-04-09T16:59:30.064Z,14.90
2023-04-09T17:02:33.240Z,16.88
2023-04-09T17:14:42.971Z,17.40
2023-04-09T17:17:46.022Z,15.90
2023-04-09T17:20:49.289Z,16.98
2023-04-09T17:26:53.828Z,16.23
2023-04-09T17:29:56.588Z,16.52
2023-04-09T17:32:59.300Z,17.17
2023-04-09T17:36:02.224Z,15.77
2023-04-09T17:39:04.620Z,19.02
2023-04-09T17:42:07.815Z,17.17
2023-04-09T17:45:10.802Z,17.00
2023-04-09T17:48:13.172Z,15.85
2023-04-09T17:51:18.586Z,15.98
2023-04-09T17:54:26.497Z,17.45
2023-04-09T17:57:30.802Z,15.73
2023-04-09T18:00:34.476Z,16.52
2023-04-09T18:03:37.264Z,16.13
2023-04-09T18:06:40.139Z,15.45
2023-04-09T18:09:42.620Z,16.90
2023-04-09T18:12:45.105Z,18.77
2023-04-09T18:15:47.832Z,16.83
2023-04-09T18:18:50.329Z,17.02
2023-04-09T18:21:52.910Z,17.42
2023-04-09T18:24:55.572Z,16.55
2023-04-09T18:27:58.229Z,19.88
2023-04-09T18:31:00.760Z,17.80
2023-04-09T18:34:03.256Z,16.90
2023-04-09T18:37:06.213Z,16.90
2023-04-09T18:40:12.318Z,17.60
2023-04-09T18:43:14.874Z,15.98
2023-04-09T18:46:17.574Z,16.42
2023-04-09T18:49:20.022Z,16.90
2023-04-09T18:52:22.536Z,18.15
2023-04-09T18:55:25.076Z,18.00
2023-04-09T18:58:27.651Z,19.27
2023-04-09T19:01:30.370Z,17.77
2023-04-09T19:04:39.723Z,16.17
2023-04-09T19:07:43.574Z,15.93
2023-04-09T19:10:47.641Z,17.52
2023-04-09T19:13:50.172Z,17.92
2023-04-09T19:16:52.637Z,16.75
2023-04-09T19:19:55.078Z,15.07
2023-04-09T19:22:58.365Z,16.20
2023-04-09T19:26:00.922Z,15.82
2023-04-09T19:29:05.386Z,16.33
2023-04-09T19:32:09.403Z,16.15
2023-04-09T19:35:12.610Z,17.52
2023-04-09T19:38:16.060Z,17.65
2023-04-09T19:41:18.730Z,16.92
2023-04-09T19:44:21.264Z,17.58
2023-04-09T19:47:23.852Z,17.38
2023-04-09T19:50:26.466Z,21.25
2023-04-09T19:53:29.124Z,21.83
2023-04-09T19:56:32.970Z,45.25
2023-04-09T19:59:39.690Z,67.45
2023-04-09T20:02:42.637Z,66.55
2023-04-09T20:05:45.099Z,83.57
2023-04-09T20:08:49.479Z,57.50
2023-04-09T20:11:52.365Z,49.95
2023-04-09T20:14:57.979Z,48.45
2023-04-09T20:18:00.823Z,41.53
2023-04-09T20:21:03.366Z,40.33
2023-04-09T20:24:06.978Z,34.17
2023-04-09T20:27:09.655Z,31.92
2023-04-09T20:30:12.770Z,29.08
2023-04-09T20:33:15.758Z,27.50
2023-04-09T20:36:18.646Z,24.67
2023-04-09T20:39:26.815Z,24.23
2023-04-09T20:42:29.293Z,22.77
2023-04-09T20:45:31.922Z,20.00
2023-04-09T20:48:34.370Z,20.80
2023-04-09T20:51:36.995Z,20.92
2023-04-09T20:54:39.540Z,19.75
2023-04-09T20:57:42.541Z,19.88
2023-04-09T21:00:44.954Z,21.92
2023-04-09T21:03:47.578Z,21.42
2023-04-09T21:06:50.031Z,22.42
2023-04-09T21:09:52.444Z,20.10
2023-04-09T21:12:54.934Z,19.83
2023-04-09T21:15:57.602Z,19.40
2023-04-09T21:19:06.848Z,21.35
2023-04-09T21:22:09.391Z,21.15
2023-04-09T21:25:14.597Z,20.83
2023-04-09T21:28:17.718Z,23.08
2023-04-09T21:31:21.303Z,25.02
2023-04-09T21:34:23.893Z,22.70
2023-04-09T21:37:28.237Z,20.17
2023-04-09T21:40:31.296Z,21.48
2023-04-09T21:43:34.700Z,20.13
2023-04-09T21:46:37.389Z,21.10
2023-04-09T21:49:40.697Z,20.15
2023-04-09T21:52:45.124Z,19.65
2023-04-09T21:55:47.593Z,20.35
2023-04-09T21:58:50.068Z,21.48
2023-04-09T22:01:53.266Z,20.08
2023-04-09T22:04:56.304Z,20.98
2023-04-09T22:07:58.865Z,19.25
2023-04-09T22:11:01.342Z,20.88
2023-04-09T22:14:03.761Z,22.90
2023-04-09T22:17:06.137Z,21.15
2023-04-09T22:20:09.698Z,22.80
2023-04-09T22:23:12.435Z,20.13
2023-04-09T22:26:15.003Z,20.88
2023-04-09T22:29:17.437Z,22.23
2023-04-09T22:32:19.980Z,20.05
2023-04-09T22:35:22.389Z,20.33
2023-04-09T22:38:25.135Z,20.77
2023-04-09T22:41:27.657Z,21.58
2023-04-09T22:44:30.144Z,21.65
2023-04-09T22:47:32.590Z,20.38
2023-04-09T22:50:35.156Z,19.30
2023-04-09T22:53:37.580Z,20.88
2023-04-09T22:56:39.985Z,22.80
2023-04-09T22:59:43.102Z,20.25
2023-04-09T23:02:47.565Z,22.48
2023-04-09T23:05:50.331Z,22.42
2023-04-09T23:08:53.081Z,21.42
2023-04-09T23:11:56.851Z,23.25
2023-04-09T23:14:59.294Z,23.50
2023-04-09T23:18:01.841Z,24.20
2023-04-09T23:21:08.171Z,22.98
2023-04-09T23:24:10.762Z,23.15
2023-04-09T23:27:14.160Z,25.52
2023-04-09T23:30:17.186Z,24.25
2023-04-09T23:33:19.781Z,23.80
2023-04-09T23:36:24.267Z,22.83
2023-04-09T23:39:27.342Z,22.80
2023-04-09T23:42:33.028Z,23.27
2023-04-09T23:45:35.808Z,25.02
2023-04-09T23:48:38.386Z,22.88
2023-04-09T23:51:40.992Z,24.83
2023-04-09T23:54:50.273Z,22.40
2023-04-09T23:57:52.984Z,21.60
